Terminal Aerodrome Forecast
Issued by NWS

Home | Current Version | Previous Version | Text Only | Print | Product List | Glossary On
Versions: 1 2 3 4 5 6 7 8 9 10 11 12 13
000
FTUS43 KOAX 042320
TAFBFF
TAF
KBFF 042320Z 0500/0524 12006KT P6SM SKC
     FM051600 18008KT P6SM SKC
     FM051900 15012G23KT P6SM SKC=

USA.gov is the U.S. government's official web portal to all federal, state and local government web resources and services.